Time;durP1;ratioP1;P1;durP2;ratioP2;P2;SDS_P1;SDS_P2;PMS_P1;PMS_P2;Temp;Humidity;BMP_temperature;BMP_pressure;BME280_temperature;BME280_humidity;BME280_pressure;Samples;Min_cycle;Max_cycle;Signal;HPM_P1;HPM_P2
2021/10/28 00:14:24;;;;;;;13.65;9.68;;;11.00;83.80;;;;;;5035954;28;20060;-74
2021/10/28 00:16:52;;;;;;;20.77;10.63;;;11.00;83.90;;;;;;5034211;28;20033;-74
2021/10/28 00:19:18;;;;;;;16.80;10.75;;;10.90;84.10;;;;;;5035565;28;20112;-74
2021/10/28 00:21:45;;;;;;;14.70;9.68;;;10.90;84.20;;;;;;5035504;28;20029;-74
2021/10/28 00:24:13;;;;;;;18.30;11.25;;;11.00;83.90;;;;;;5035858;28;20036;-74
2021/10/28 00:26:41;;;;;;;23.15;10.70;;;10.90;83.70;;;;;;5043134;28;20132;-74
2021/10/28 00:29:09;;;;;;;15.00;10.57;;;10.90;83.90;;;;;;5054193;28;20029;-74
2021/10/28 00:31:37;;;;;;;20.58;11.27;;;10.90;83.90;;;;;;5055321;28;20033;-74
2021/10/28 00:34:04;;;;;;;17.80;10.70;;;10.90;84.00;;;;;;5044694;28;20040;-74
2021/10/28 00:36:31;;;;;;;17.75;10.35;;;10.90;84.00;;;;;;5034059;28;20029;-74
2021/10/28 00:39:09;;;;;;;;;;;;;;;;;;;;;
2021/10/28 00:41:36;;;;;;;18.17;10.35;;;10.80;83.90;;;;;;5035127;28;20025;-74
2021/10/28 00:44:03;;;;;;;17.17;10.77;;;10.80;83.90;;;;;;5033920;28;20029;-74
2021/10/28 00:46:31;;;;;;;18.42;10.38;;;10.90;83.70;;;;;;5035044;28;20120;-74
2021/10/28 00:48:58;;;;;;;14.13;9.25;;;11.00;83.40;;;;;;5035284;28;20117;-74
2021/10/28 00:51:26;;;;;;;16.63;10.32;;;11.00;83.00;;;;;;5052524;28;20029;-74
2021/10/28 00:53:52;;;;;;;18.13;10.73;;;10.90;83.30;;;;;;5054998;28;20026;-74
2021/10/28 00:56:26;;;;;;;16.00;10.88;;;10.90;83.20;;;;;;5039452;28;20025;-74
2021/10/28 00:58:52;;;;;;;14.95;9.82;;;11.00;83.00;;;;;;5036794;28;20108;-74
2021/10/28 01:01:18;;;;;;;15.60;9.82;;;11.00;82.40;;;;;;5055211;28;20182;-74
2021/10/28 01:03:44;;;;;;;18.33;9.88;;;11.00;82.40;;;;;;5055156;28;20021;-74
2021/10/28 01:06:12;;;;;;;17.52;10.25;;;11.00;82.60;;;;;;5055284;28;20028;-74
2021/10/28 01:08:42;;;;;;;15.15;9.98;;;10.90;82.80;;;;;;5039111;28;20079;-74
2021/10/28 01:11:09;;;;;;;16.67;9.60;;;10.80;82.90;;;;;;5039014;28;20087;-74
2021/10/28 01:13:36;;;;;;;16.55;10.02;;;10.80;83.20;;;;;;5037548;28;20075;-74
2021/10/28 01:16:03;;;;;;;19.00;9.82;;;10.80;83.10;;;;;;5039060;28;20100;-74
2021/10/28 01:18:30;;;;;;;18.58;9.80;;;10.70;83.40;;;;;;5038993;28;20025;-74
2021/10/28 01:20:56;;;;;;;16.30;10.52;;;10.80;83.40;;;;;;5037435;28;20518;-74
2021/10/28 01:23:24;;;;;;;18.42;9.70;;;10.70;83.60;;;;;;5039115;28;20071;-74
2021/10/28 01:26:01;;;;;;;17.35;10.13;;;10.70;83.60;;;;;;5056126;28;20444;-74
2021/10/28 01:28:29;;;;;;;21.73;11.80;;;10.70;83.40;;;;;;5057656;28;20071;-74
2021/10/28 01:31:00;;;;;;;17.02;9.55;;;10.70;83.40;;;;;;5058792;28;20067;-74
2021/10/28 01:33:26;;;;;;;;;;;10.60;83.40;;;;;;5047147;28;20075;-74
2021/10/28 01:36:11;;;;;;;13.98;9.73;;;10.60;83.90;;;;;;5037193;28;19909;-74
2021/10/28 01:38:38;;;;;;;19.02;10.20;;;10.50;84.10;;;;;;5038534;28;20088;-74
2021/10/28 01:41:05;;;;;;;18.23;10.63;;;10.50;84.00;;;;;;5038413;28;20028;-74
2021/10/28 01:43:33;;;;;;;18.60;10.07;;;10.50;84.10;;;;;;5037043;28;20025;-74
2021/10/28 01:45:59;;;;;;;15.77;10.15;;;10.50;84.10;;;;;;5038092;28;20073;-74
2021/10/28 01:48:26;;;;;;;18.73;11.43;;;10.60;84.10;;;;;;5038392;28;20030;-74
2021/10/28 01:50:51;;;;;;;20.02;10.82;;;10.70;83.50;;;;;;5038352;28;20025;-74
2021/10/28 01:53:20;;;;;;;15.30;10.23;;;10.70;83.00;;;;;;5037159;28;20041;-74
2021/10/28 01:55:46;;;;;;;16.45;10.90;;;10.70;82.90;;;;;;5036801;28;20021;-74
2021/10/28 01:58:12;;;;;;;15.63;9.77;;;10.70;82.40;;;;;;5036787;28;20040;-74
2021/10/28 02:00:39;;;;;;;18.30;9.90;;;10.70;82.10;;;;;;5036554;28;20029;-74
2021/10/28 02:03:04;;;;;;;14.60;9.23;;;10.70;82.00;;;;;;5038132;28;20392;-74
2021/10/28 02:05:30;;;;;;;16.77;10.13;;;10.70;82.00;;;;;;5038039;28;20036;-74
2021/10/28 02:07:56;;;;;;;16.13;9.15;;;10.70;82.30;;;;;;5036669;28;20040;-74
2021/10/28 02:10:24;;;;;;;14.95;10.13;;;10.50;82.60;;;;;;5036506;28;20055;-74
2021/10/28 02:12:51;;;;;;;16.60;9.93;;;10.60;83.10;;;;;;5036555;28;20046;-74
2021/10/28 02:15:19;;;;;;;14.38;9.55;;;10.60;83.00;;;;;;5037755;28;20054;-74
2021/10/28 02:17:45;;;;;;;13.73;9.27;;;10.70;82.70;;;;;;5036187;28;20404;-74
2021/10/28 02:20:14;;;;;;;16.15;9.93;;;10.70;82.30;;;;;;5037465;28;20033;-74
2021/10/28 02:22:41;;;;;;;13.27;9.40;;;10.70;81.70;;;;;;5052354;28;20159;-74
2021/10/28 02:25:07;;;;;;;14.63;9.73;;;10.70;81.90;;;;;;5059956;28;20024;-73
2021/10/28 02:27:38;;;;;;;17.30;9.82;;;10.70;81.80;;;;;;5059804;28;20032;-74
2021/10/28 02:30:06;;;;;;;16.38;9.75;;;10.70;80.90;;;;;;5057518;28;20032;-74
2021/10/28 02:32:31;;;;;;;15.85;8.73;;;10.70;80.90;;;;;;5052096;28;20430;-74
2021/10/28 02:34:57;;;;;;;11.77;8.30;;;10.60;80.80;;;;;;5037803;28;20031;-74
2021/10/28 02:37:23;;;;;;;17.17;10.32;;;10.50;80.90;;;;;;5037374;28;20022;-74
2021/10/28 02:39:49;;;;;;;18.48;9.35;;;10.60;81.40;;;;;;5037657;28;20069;-74
2021/10/28 02:42:15;;;;;;;14.23;9.15;;;10.50;80.40;;;;;;5035620;28;20026;-74
2021/10/28 02:44:42;;;;;;;14.48;9.68;;;10.40;81.00;;;;;;5037094;28;20749;-74
2021/10/28 02:47:07;;;;;;;17.67;9.52;;;10.50;81.00;;;;;;5052320;28;20049;-74
2021/10/28 02:49:33;;;;;;;16.75;10.27;;;10.50;80.90;;;;;;5037340;28;20032;-74
2021/10/28 02:51:59;;;;;;;16.13;10.02;;;10.50;80.70;;;;;;5037154;28;20068;-74
2021/10/28 02:54:24;;;;;;;16.85;9.63;;;10.50;80.60;;;;;;5037061;28;20026;-74
2021/10/28 02:56:51;;;;;;;19.58;10.02;;;10.40;81.20;;;;;;5037004;28;20037;-74
2021/10/28 02:59:17;;;;;;;18.13;10.00;;;10.40;81.50;;;;;;5036946;28;20493;-74
2021/10/28 03:01:48;;;;;;;16.85;10.20;;;10.40;81.30;;;;;;5035646;28;20026;-74
2021/10/28 03:04:15;;;;;;;13.57;8.38;;;10.40;81.40;;;;;;5019127;28;20018;-74
2021/10/28 03:06:42;;;;;;;14.57;9.77;;;10.50;81.50;;;;;;5035612;28;20033;-74
2021/10/28 03:09:13;;;;;;;17.90;10.00;;;10.40;82.00;;;;;;5036788;28;20025;-74
2021/10/28 03:11:41;;;;;;;17.00;9.90;;;10.40;82.10;;;;;;5036620;28;20093;-74
2021/10/28 03:14:07;;;;;;;16.20;9.93;;;10.40;82.10;;;;;;5036736;28;20096;-74
2021/10/28 03:19:45;;;;;;;15.95;9.35;;;10.40;82.20;;;;;;5091134;28;20024;-74
2021/10/28 03:27:40;;;;;;;15.82;10.05;;;10.30;82.80;;;;;;5056351;28;20102;-74
2021/10/28 03:30:08;;;;;;;17.58;10.10;;;10.30;82.20;;;;;;5054498;28;20029;-74
2021/10/28 03:32:33;;;;;;;19.67;10.40;;;10.30;82.10;;;;;;5050436;28;20083;-74
2021/10/28 03:34:59;;;;;;;15.88;10.07;;;10.30;82.20;;;;;;5034747;28;20053;-74
2021/10/28 03:37:31;;;;;;;18.45;11.25;;;10.30;82.60;;;;;;5034910;28;20082;-74
2021/10/28 03:40:29;;;;;;;15.95;9.95;;;10.20;83.00;;;;;;5035011;28;20397;-74
2021/10/28 03:54:27;;;;;;;19.42;11.18;;;9.80;84.10;;;;;;5036363;28;20463;-75
2021/10/28 03:59:54;;;;;;;19.40;10.27;;;9.80;84.50;;;;;;5036035;28;19913;-74
2021/10/28 04:05:19;;;;;;;17.55;10.52;;;9.80;84.30;;;;;;5036151;28;20030;-74
2021/10/28 04:29:29;;;;;;;17.75;11.10;;;9.50;84.50;;;;;;5045628;28;20067;-74
2021/10/28 04:31:55;;;;;;;19.00;11.68;;;9.40;84.60;;;;;;5035628;28;20928;-74
2021/10/28 04:34:21;;;;;;;21.15;12.10;;;9.40;84.50;;;;;;5035451;28;20045;-74
2021/10/28 04:36:47;;;;;;;20.73;12.25;;;9.30;84.40;;;;;;5034133;28;20094;-74
2021/10/28 04:39:12;;;;;;;17.80;11.68;;;9.40;84.40;;;;;;5034115;28;20033;-74
2021/10/28 04:41:39;;;;;;;24.73;12.80;;;9.20;84.60;;;;;;5036267;28;20022;-74
2021/10/28 04:44:09;;;;;;;22.20;11.13;;;9.30;84.80;;;;;;5038255;28;20021;-74
2021/10/28 04:46:35;;;;;;;;;;;9.20;84.70;;;;;;5038442;28;20774;-74
2021/10/28 04:49:01;;;;;;;14.80;8.20;;;9.20;85.00;;;;;;5039425;28;19909;-74
2021/10/28 04:51:26;;;;;;;17.55;9.88;;;9.20;85.10;;;;;;5038237;28;20056;-74
2021/10/28 04:53:52;;;;;;;18.73;12.07;;;9.20;85.00;;;;;;5037658;28;20488;-74
2021/10/28 04:56:18;;;;;;;14.00;9.27;;;9.10;85.00;;;;;;5038367;28;20034;-74
2021/10/28 04:58:44;;;;;;;19.15;11.10;;;9.00;85.10;;;;;;5039523;28;20379;-74
2021/10/28 05:01:09;;;;;;;16.20;9.60;;;9.10;85.20;;;;;;5055985;28;20565;-74
2021/10/28 05:03:35;;;;;;;20.75;10.38;;;9.10;85.10;;;;;;5048183;28;20889;-74
2021/10/28 05:06:07;;;;;;;24.83;12.77;;;9.00;85.30;;;;;;5039171;28;20563;-74
2021/10/28 05:08:34;;;;;;;19.85;11.80;;;9.10;85.50;;;;;;5039537;28;20045;-74
2021/10/28 05:11:00;;;;;;;19.73;12.05;;;9.10;85.20;;;;;;5039075;28;20558;-74
2021/10/28 05:13:26;;;;;;;19.67;11.80;;;9.10;84.90;;;;;;5039121;28;20377;-74
2021/10/28 05:15:59;;;;;;;23.13;11.38;;;9.10;85.10;;;;;;5038802;28;20103;-74
2021/10/28 05:18:25;;;;;;;22.05;12.25;;;9.10;85.20;;;;;;5045327;28;20025;-74
2021/10/28 05:20:52;;;;;;;20.35;11.40;;;9.20;84.80;;;;;;5053207;28;20057;-74
2021/10/28 05:23:19;;;;;;;21.05;11.68;;;9.20;84.80;;;;;;5041100;28;20029;-74
2021/10/28 05:25:48;;;;;;;15.57;9.52;;;9.10;84.50;;;;;;5071431;28;20672;-74
2021/10/28 05:28:15;;;;;;;21.05;12.25;;;9.00;84.50;;;;;;5070437;28;20020;-74
2021/10/28 05:30:40;;;;;;;21.23;11.10;;;9.00;84.80;;;;;;5058512;28;20037;-74
2021/10/28 05:33:06;;;;;;;22.35;11.60;;;9.10;84.80;;;;;;5052915;28;20028;-73
2021/10/28 05:35:32;;;;;;;21.00;12.43;;;9.00;84.80;;;;;;5033805;28;20786;-74
2021/10/28 05:38:00;;;;;;;24.25;13.43;;;9.10;84.70;;;;;;5038552;28;20025;-74
2021/10/28 05:40:25;;;;;;;18.00;11.43;;;9.10;84.70;;;;;;5036996;28;20064;-74
2021/10/28 05:42:53;;;;;;;20.27;12.60;;;9.20;84.30;;;;;;5037042;28;20502;-74
2021/10/28 05:45:22;;;;;;;22.70;12.10;;;9.10;84.20;;;;;;5037046;28;20052;-74
2021/10/28 05:47:52;;;;;;;19.10;10.15;;;9.20;84.20;;;;;;5036929;28;20488;-74
2021/10/28 05:50:20;;;;;;;;;;;9.10;84.20;;;;;;5038895;28;20228;-74
2021/10/28 05:52:48;;;;;;;14.68;9.77;;;9.10;84.50;;;;;;5036615;28;19912;-74
2021/10/28 05:55:14;;;;;;;18.67;12.27;;;9.00;84.30;;;;;;5038230;28;20057;-74
2021/10/28 05:57:43;;;;;;;17.23;10.82;;;9.10;84.30;;;;;;5038232;28;20032;-74
2021/10/28 06:00:09;;;;;;;19.83;10.80;;;9.00;84.10;;;;;;5037018;28;20038;-73
2021/10/28 06:02:35;;;;;;;19.25;11.07;;;9.10;84.20;;;;;;5036776;28;20030;-74
2021/10/28 06:05:02;;;;;;;12.55;6.65;;;9.20;84.30;;;;;;5037915;28;20369;-74
2021/10/28 06:07:42;;;;;;;17.63;9.98;;;9.20;84.00;;;;;;5037756;28;20473;-74
2021/10/28 06:10:11;;;;;;;22.20;12.38;;;9.20;84.10;;;;;;5037977;28;20056;-74
2021/10/28 06:12:43;;;;;;;18.88;11.35;;;9.20;84.00;;;;;;5043253;28;20025;-74
2021/10/28 06:15:17;;;;;;;17.35;10.18;;;9.20;83.80;;;;;;5038047;28;20033;-74
2021/10/28 06:17:48;;;;;;;17.85;10.52;;;9.20;83.70;;;;;;5037857;28;20029;-74
2021/10/28 06:20:14;;;;;;;24.20;12.23;;;9.20;83.70;;;;;;5037659;28;20033;-74
2021/10/28 06:22:40;;;;;;;18.10;10.57;;;9.20;84.10;;;;;;5036440;28;20022;-74
2021/10/28 06:25:09;;;;;;;21.77;10.88;;;9.20;83.50;;;;;;5059615;28;20024;-74
2021/10/28 06:27:35;;;;;;;16.70;10.27;;;9.20;83.80;;;;;;5076304;28;20028;-74
2021/10/28 06:30:01;;;;;;;18.67;11.43;;;9.20;83.70;;;;;;5061766;28;20057;-74
2021/10/28 06:32:43;;;;;;;18.02;11.02;;;9.20;83.80;;;;;;5056293;28;20056;-74
2021/10/28 06:35:09;;;;;;;22.25;12.60;;;9.20;83.70;;;;;;5056008;28;20060;-74
2021/10/28 06:37:34;;;;;;;19.73;11.20;;;9.10;83.60;;;;;;5057359;28;20040;-74
2021/10/28 06:40:00;;;;;;;18.35;11.15;;;9.20;83.80;;;;;;5041441;28;20036;-74
2021/10/28 06:42:28;;;;;;;18.15;10.45;;;9.20;83.70;;;;;;5052605;28;20148;-74
2021/10/28 06:44:54;;;;;;;18.08;11.73;;;9.20;83.60;;;;;;5037387;28;20510;-73
2021/10/28 06:47:20;;;;;;;18.90;11.20;;;9.10;83.90;;;;;;5037343;28;20025;-74
2021/10/28 06:49:45;;;;;;;18.23;10.68;;;9.10;84.20;;;;;;5037382;28;20009;-74
2021/10/28 06:52:12;;;;;;;18.67;10.95;;;9.10;84.20;;;;;;5035769;28;20056;-74
2021/10/28 06:54:41;;;;;;;21.23;11.93;;;9.10;84.40;;;;;;5037146;28;20530;-74
2021/10/28 07:04:47;;;;;;;19.35;10.40;;;9.20;84.20;;;;;;5035900;28;20017;-74
2021/10/28 07:07:14;;;;;;;17.08;10.77;;;9.10;84.50;;;;;;5035435;28;20048;-74
2021/10/28 07:09:48;;;;;;;19.23;11.38;;;9.20;84.60;;;;;;5036560;28;20439;-74
2021/10/28 07:13:17;;;;;;;21.40;10.73;;;9.20;84.40;;;;;;5047059;28;20040;-74
2021/10/28 07:15:18;;;;;;;19.40;13.27;;;9.30;84.30;;;;;;5055852;28;20065;-74
2021/10/28 08:21:30;;;;;;;13.50;9.95;;;10.50;83.50;;;;;;5035452;28;20033;-74
2021/10/28 08:24:10;;;;;;;17.90;11.00;;;10.60;83.70;;;;;;5054752;28;20035;-74
2021/10/28 08:29:28;;;;;;;13.85;8.68;;;10.80;83.40;;;;;;5067557;28;20036;-74
2021/10/28 08:31:55;;;;;;;14.55;8.75;;;10.80;83.50;;;;;;5054090;28;20029;-74
2021/10/28 08:34:27;;;;;;;15.13;9.73;;;10.90;83.50;;;;;;5049302;28;20450;-74
2021/10/28 08:36:56;;;;;;;14.10;8.95;;;11.00;83.50;;;;;;5035560;28;20030;-74
2021/10/28 08:39:22;;;;;;;13.10;8.15;;;11.10;83.60;;;;;;5035429;28;20036;-74
2021/10/28 08:41:49;;;;;;;11.80;8.25;;;11.20;83.60;;;;;;5034985;28;20028;-74
2021/10/28 08:44:19;;;;;;;15.10;8.65;;;11.20;83.30;;;;;;5035369;28;20029;-74
2021/10/28 08:46:54;;;;;;;;;;;11.30;83.60;;;;;;5035666;28;20054;-74
2021/10/28 08:49:31;;;;;;;16.98;9.38;;;11.40;83.60;;;;;;5035404;28;20004;-74
2021/10/28 09:24:43;;;;;;;11.95;7.68;;;13.00;82.50;;;;;;5050009;28;20040;-74
2021/10/28 09:45:52;;;;;;;13.07;7.97;;;13.60;81.40;;;;;;5038590;28;20049;-73
2021/10/28 09:48:24;;;;;;;12.10;7.75;;;13.60;81.00;;;;;;5038646;28;20021;-74
2021/10/28 09:50:51;;;;;;;9.85;7.65;;;13.70;80.50;;;;;;5038399;28;20029;-74
2021/10/28 09:58:30;;;;;;;12.02;7.85;;;13.90;80.40;;;;;;5038415;28;20025;-74
2021/10/28 10:00:57;;;;;;;11.60;7.20;;;13.90;79.90;;;;;;5053488;28;20043;-74
2021/10/28 10:03:30;;;;;;;11.55;7.45;;;14.00;80.10;;;;;;5053543;28;20028;-74
2021/10/28 10:06:01;;;;;;;9.13;6.93;;;14.00;79.70;;;;;;5055267;28;20029;-74
2021/10/28 10:08:29;;;;;;;7.38;5.97;;;14.10;79.50;;;;;;5056600;28;20055;-74
2021/10/28 10:10:55;;;;;;;15.02;6.82;;;14.20;79.00;;;;;;5057748;28;20514;-74
2021/10/28 10:13:29;;;;;;;12.48;7.88;;;14.20;79.40;;;;;;5047545;28;20025;-74
2021/10/28 10:16:00;;;;;;;9.55;5.88;;;14.30;78.90;;;;;;5037744;28;20025;-74
2021/10/28 10:18:38;;;;;;;10.68;6.63;;;14.30;78.30;;;;;;5046806;28;20029;-74
2021/10/28 10:21:15;;;;;;;11.75;7.00;;;14.40;78.50;;;;;;5036293;28;20037;-74
2021/10/28 10:24:07;;;;;;;15.98;7.45;;;14.50;78.60;;;;;;5037687;28;20025;-74
2021/10/28 10:27:32;;;;;;;10.52;6.72;;;14.60;77.70;;;;;;5037793;28;20480;-74
2021/10/28 12:01:22;;;;;;;11.25;5.88;;;16.00;72.90;;;;;;5036374;28;20033;-74
2021/10/28 12:27:57;;;;;;;6.55;3.88;;;17.20;68.70;;;;;;5066814;28;20036;-74
2021/10/28 12:43:27;;;;;;;6.35;4.10;;;17.20;68.20;;;;;;5075390;28;20060;-74
2021/10/28 13:48:37;;;;;;;12.60;3.83;;;18.00;64.10;;;;;;5038681;28;20040;-75
2021/10/28 13:56:16;;;;;;;5.05;3.28;;;18.00;63.80;;;;;;5038646;28;20144;-74
2021/10/28 13:59:08;;;;;;;7.03;3.60;;;18.00;63.50;;;;;;5053057;28;20086;-74
2021/10/28 14:23:39;;;;;;;4.20;2.60;;;18.20;62.90;;;;;;5038139;28;20025;-74
2021/10/28 15:28:16;;;;;;;7.15;3.70;;;17.40;66.50;;;;;;5040539;28;20040;-74
2021/10/28 15:35:56;;;;;;;4.47;3.05;;;17.20;68.00;;;;;;5036019;28;20095;-75
2021/10/28 15:57:41;;;;;;;4.97;3.20;;;17.30;68.60;;;;;;5065400;28;20052;-74
2021/10/28 16:21:56;;;;;;;4.35;3.33;;;16.70;70.10;;;;;;5035754;28;20056;-74
2021/10/28 16:24:26;;;;;;;7.97;2.95;;;16.70;70.20;;;;;;5045391;28;20024;-74
2021/10/28 16:26:53;;;;;;;7.05;3.45;;;16.60;70.40;;;;;;5074242;28;20024;-74
2021/10/28 16:29:19;;;;;;;4.63;3.45;;;16.50;70.60;;;;;;5040786;28;20021;-74
2021/10/28 16:31:46;;;;;;;6.50;3.95;;;16.50;70.80;;;;;;5035358;28;20043;-74
2021/10/28 16:34:12;;;;;;;6.18;3.55;;;16.50;71.00;;;;;;5035307;28;20399;-74
2021/10/28 16:36:38;;;;;;;7.05;3.63;;;16.40;71.20;;;;;;5035554;28;20032;-74
2021/10/28 16:39:10;;;;;;;10.77;4.40;;;16.30;71.50;;;;;;5035760;28;20395;-73
2021/10/28 16:41:38;;;;;;;6.32;3.75;;;16.30;71.70;;;;;;5034313;28;20037;-74
2021/10/28 16:44:04;;;;;;;10.48;4.50;;;16.20;71.80;;;;;;5034919;28;20025;-73
2021/10/28 16:46:30;;;;;;;7.30;4.18;;;16.20;72.00;;;;;;5035195;28;20053;-74
2021/10/28 16:48:56;;;;;;;7.40;4.05;;;16.10;72.10;;;;;;5036835;28;20089;-74
2021/10/28 16:51:22;;;;;;;10.00;4.03;;;16.10;72.50;;;;;;5044341;28;20546;-74
2021/10/28 16:53:49;;;;;;;8.60;4.43;;;16.10;72.40;;;;;;5036201;28;20032;-74
2021/10/28 16:56:15;;;;;;;5.85;4.07;;;16.00;72.60;;;;;;5053838;28;20040;-74
2021/10/28 16:58:42;;;;;;;5.85;4.10;;;15.90;72.70;;;;;;5053822;28;20102;-74
2021/10/28 17:01:09;;;;;;;8.95;4.82;;;15.90;72.70;;;;;;5039682;28;20033;-74
2021/10/28 17:03:35;;;;;;;9.73;5.00;;;15.80;72.70;;;;;;5035203;28;20476;-74
2021/10/28 17:06:01;;;;;;;9.00;4.88;;;15.80;73.00;;;;;;5036338;28;20706;-74
2021/10/28 17:08:28;;;;;;;7.45;4.65;;;15.80;73.20;;;;;;5054076;28;21136;-74
2021/10/28 17:10:55;;;;;;;6.15;4.57;;;15.80;73.20;;;;;;5053632;28;20048;-73
2021/10/28 17:13:21;;;;;;;7.13;5.38;;;15.80;73.40;;;;;;5054588;28;20020;-74
2021/10/28 17:15:46;;;;;;;10.85;4.75;;;15.70;73.50;;;;;;5054549;28;20033;-74
2021/10/28 17:18:12;;;;;;;11.20;5.03;;;15.60;73.60;;;;;;5043808;28;20510;-74
2021/10/28 17:20:38;;;;;;;5.60;4.03;;;15.60;73.80;;;;;;5034945;28;20029;-74
2021/10/28 17:23:05;;;;;;;6.80;4.28;;;15.50;74.20;;;;;;5038238;28;20080;-74
2021/10/28 17:25:38;;;;;;;8.73;4.80;;;15.50;74.10;;;;;;5064163;28;20481;-74
2021/10/28 17:28:04;;;;;;;8.75;5.18;;;15.50;74.30;;;;;;5075100;28;20017;-74
2021/10/28 17:30:30;;;;;;;6.60;4.90;;;15.40;74.40;;;;;;5074212;28;20068;-73
2021/10/28 17:32:56;;;;;;;7.22;5.20;;;15.40;74.70;;;;;;5035311;28;20041;-74
2021/10/28 17:35:23;;;;;;;9.57;5.38;;;15.40;74.70;;;;;;5035024;28;20032;-76
2021/10/28 17:37:49;;;;;;;6.20;4.07;;;15.30;74.60;;;;;;5033376;28;20492;-75
2021/10/28 17:40:15;;;;;;;10.32;5.15;;;15.30;75.00;;;;;;5034873;28;20542;-75
2021/10/28 17:42:47;;;;;;;7.25;4.47;;;15.30;74.90;;;;;;5036789;28;20081;-75
2021/10/28 17:45:13;;;;;;;6.50;4.75;;;15.30;75.00;;;;;;5035897;28;20480;-73
2021/10/28 17:47:42;;;;;;;7.38;4.78;;;15.30;74.90;;;;;;5039277;28;20395;-74
2021/10/28 17:50:09;;;;;;;6.15;4.78;;;15.30;74.90;;;;;;5050423;28;20146;-74
2021/10/28 17:52:36;;;;;;;9.07;4.85;;;15.30;75.00;;;;;;5039034;28;20030;-76
2021/10/28 17:55:03;;;;;;;13.85;6.32;;;15.20;75.10;;;;;;5037272;28;20032;-76
2021/10/28 17:57:29;;;;;;;17.70;9.32;;;15.10;75.60;;;;;;5045113;28;20029;-78
2021/10/28 17:59:55;;;;;;;15.52;8.18;;;15.10;75.60;;;;;;5050478;28;20026;-76
2021/10/28 18:02:21;;;;;;;9.85;6.15;;;15.10;75.60;;;;;;5050146;28;20036;-77
2021/10/28 18:04:47;;;;;;;11.07;6.63;;;15.00;75.70;;;;;;5045669;28;20044;-80
2021/10/28 18:07:13;;;;;;;9.63;6.90;;;15.00;75.80;;;;;;5040079;28;20025;-74
2021/10/28 18:09:43;;;;;;;10.40;6.20;;;14.90;76.00;;;;;;5050472;28;20483;-73
2021/10/28 18:12:09;;;;;;;10.57;6.35;;;14.80;76.20;;;;;;5049971;28;20037;-73
2021/10/28 18:14:35;;;;;;;9.95;6.38;;;14.80;76.50;;;;;;5059741;28;20032;-77
2021/10/28 18:17:01;;;;;;;13.00;6.30;;;14.80;76.60;;;;;;5054967;28;20029;-75
2021/10/28 18:19:27;;;;;;;11.90;7.70;;;14.80;76.50;;;;;;5050332;28;20502;-74
2021/10/28 18:21:55;;;;;;;13.88;7.15;;;14.80;76.70;;;;;;5050087;28;20029;-77
2021/10/28 18:24:22;;;;;;;11.23;6.82;;;14.80;76.60;;;;;;5050422;28;20037;-74
2021/10/28 18:26:48;;;;;;;11.10;6.30;;;14.80;76.70;;;;;;5051533;28;20050;-75
2021/10/28 18:29:14;;;;;;;9.50;6.43;;;14.80;76.90;;;;;;5049286;28;20021;-74
2021/10/28 18:31:41;;;;;;;10.63;6.75;;;14.70;76.80;;;;;;5049501;28;20035;-79
2021/10/28 18:34:07;;;;;;;12.98;6.47;;;14.70;76.80;;;;;;5054923;28;20028;-74
2021/10/28 18:36:34;;;;;;;9.52;5.57;;;14.80;77.00;;;;;;5045654;28;20047;-75
2021/10/28 18:39:04;;;;;;;11.68;6.20;;;14.70;77.10;;;;;;5047688;28;20030;-74
2021/10/28 18:41:30;;;;;;;10.52;6.20;;;14.70;77.20;;;;;;5053091;28;20037;-74
2021/10/28 18:43:56;;;;;;;10.00;6.22;;;14.60;77.10;;;;;;5050546;28;20432;-75
2021/10/28 18:46:22;;;;;;;10.77;6.00;;;14.70;77.20;;;;;;5051645;28;20038;-75
2021/10/28 18:48:52;;;;;;;10.73;6.75;;;14.70;76.80;;;;;;5051007;28;20053;-77
2021/10/28 18:51:19;;;;;;;8.98;6.40;;;14.60;77.10;;;;;;5051685;28;20471;-74
2021/10/28 18:53:47;;;;;;;12.55;7.40;;;14.60;77.30;;;;;;5049507;28;20100;-74
2021/10/28 18:56:14;;;;;;;14.00;7.25;;;14.50;77.40;;;;;;5042415;28;20029;-74
2021/10/28 18:58:40;;;;;;;10.68;5.93;;;14.50;77.40;;;;;;5039452;28;20067;-75
2021/10/28 19:01:06;;;;;;;14.82;7.25;;;14.50;77.60;;;;;;5043043;28;20025;-78
2021/10/28 19:03:32;;;;;;;13.25;7.80;;;14.50;77.40;;;;;;5046554;28;20028;-75
2021/10/28 19:05:59;;;;;;;12.40;6.88;;;14.40;77.70;;;;;;5049924;28;20583;-72
2021/10/28 19:08:25;;;;;;;11.85;7.10;;;14.40;78.00;;;;;;5050391;28;20064;-71
2021/10/28 19:10:51;;;;;;;11.20;7.28;;;14.30;78.50;;;;;;5045903;28;20423;-73
2021/10/28 19:13:17;;;;;;;13.30;7.65;;;14.30;78.90;;;;;;5048308;28;20029;-75
2021/10/28 19:15:43;;;;;;;13.95;8.55;;;14.30;78.70;;;;;;5043918;28;20029;-74
2021/10/28 19:18:09;;;;;;;12.73;7.63;;;14.30;78.80;;;;;;5042265;28;20033;-73
2021/10/28 19:20:36;;;;;;;10.68;7.95;;;14.30;78.90;;;;;;5044829;28;20664;-74
2021/10/28 19:23:02;;;;;;;13.73;7.97;;;14.30;78.90;;;;;;5043116;28;20087;-73
2021/10/28 19:25:28;;;;;;;13.85;8.00;;;14.30;79.10;;;;;;5043201;28;20518;-74
2021/10/28 19:27:55;;;;;;;12.13;7.22;;;14.30;79.00;;;;;;5042840;28;20162;-75
2021/10/28 19:32:58;;;;;;;12.00;7.50;;;14.30;79.20;;;;;;5045274;28;20033;-75
2021/10/28 19:35:26;;;;;;;12.98;7.25;;;14.30;79.60;;;;;;5040217;28;20064;-75
2021/10/28 19:38:00;;;;;;;14.98;7.20;;;14.30;79.50;;;;;;5041011;28;20108;-75
2021/10/28 19:40:35;;;;;;;11.35;6.55;;;14.20;79.80;;;;;;5040416;28;20074;-75
2021/10/28 19:48:16;;;;;;;12.98;7.82;;;14.20;80.00;;;;;;5051089;28;20100;-76
2021/10/28 19:50:44;;;;;;;14.18;7.50;;;14.20;79.90;;;;;;5038246;28;20048;-78
2021/10/28 19:53:10;;;;;;;14.30;7.85;;;14.20;80.20;;;;;;5037070;28;20025;-75
2021/10/28 19:55:38;;;;;;;19.15;8.68;;;14.20;80.40;;;;;;5041095;28;20032;-75
2021/10/28 19:58:07;;;;;;;14.07;8.38;;;14.20;80.60;;;;;;5043808;28;20060;-74
2021/10/28 20:00:40;;;;;;;16.98;8.05;;;14.10;80.80;;;;;;5040022;28;20111;-76
2021/10/28 20:03:25;;;;;;;19.13;8.73;;;14.20;80.90;;;;;;5041693;28;20021;-75
2021/10/28 20:06:10;;;;;;;19.30;9.63;;;14.10;81.30;;;;;;5046076;28;20450;-77
2021/10/28 20:22:14;;;;;;;21.23;10.20;;;14.20;82.00;;;;;;5044970;28;20040;-79
2021/10/28 20:24:40;;;;;;;21.55;10.63;;;14.10;82.10;;;;;;5050799;28;20029;-79
2021/10/28 20:27:06;;;;;;;19.33;11.25;;;14.20;82.10;;;;;;5047608;28;20031;-78
2021/10/28 20:29:33;;;;;;;19.00;10.35;;;14.20;82.00;;;;;;5046289;28;20617;-77
2021/10/28 20:31:59;;;;;;;20.73;11.13;;;14.10;82.20;;;;;;5049590;28;20030;-79
2021/10/28 20:37:15;;;;;;;23.73;12.90;;;14.00;83.00;;;;;;5050472;28;20029;-76
2021/10/28 20:39:47;;;;;;;19.63;10.85;;;14.00;83.40;;;;;;5052760;28;20060;-78
2021/10/28 20:42:16;;;;;;;25.27;12.35;;;14.00;83.50;;;;;;5051979;28;20029;-89
2021/10/28 20:44:50;;;;;;;20.52;12.38;;;14.00;83.50;;;;;;5042927;28;20075;-79
2021/10/28 20:47:16;;;;;;;17.38;9.73;;;14.10;83.70;;;;;;5041046;28;20029;-77
2021/10/28 20:49:42;;;;;;;19.70;9.93;;;14.10;84.00;;;;;;5048450;28;20536;-77
2021/10/28 20:52:08;;;;;;;20.88;11.75;;;13.90;84.40;;;;;;5050482;28;20024;-79
2021/10/28 20:54:35;;;;;;;20.80;10.88;;;14.00;84.70;;;;;;5041967;28;20025;-78
2021/10/28 20:57:03;;;;;;;19.20;9.90;;;13.90;84.80;;;;;;5046327;28;20028;-77
2021/10/28 20:59:29;;;;;;;20.45;10.68;;;14.00;84.70;;;;;;5040306;28;20021;-77
2021/10/28 21:01:56;;;;;;;17.58;10.60;;;14.00;84.50;;;;;;5050037;28;20539;-77
2021/10/28 21:04:21;;;;;;;20.45;11.05;;;14.00;84.50;;;;;;5037436;28;20538;-77
2021/10/28 21:06:48;;;;;;;16.85;11.43;;;14.10;84.10;;;;;;5040981;28;20028;-78
2021/10/28 21:09:14;;;;;;;19.17;11.93;;;14.20;84.00;;;;;;5041031;28;20014;-77
2021/10/28 21:11:40;;;;;;;22.67;11.73;;;14.20;83.90;;;;;;5039397;28;20025;-78
2021/10/28 21:14:07;;;;;;;15.20;9.35;;;14.20;83.90;;;;;;5051430;28;20024;-78
2021/10/28 21:16:33;;;;;;;22.67;10.77;;;14.20;83.90;;;;;;5054111;28;20026;-78
2021/10/28 21:19:00;;;;;;;23.60;10.27;;;14.10;83.90;;;;;;5050293;28;20025;-77
2021/10/28 21:21:27;;;;;;;16.10;11.02;;;14.10;83.80;;;;;;5052817;28;20084;-78
2021/10/28 21:23:52;;;;;;;21.63;10.73;;;14.10;83.60;;;;;;5056994;28;20098;-77
2021/10/28 21:26:18;;;;;;;21.50;10.23;;;14.20;83.50;;;;;;5061108;28;20025;-77
2021/10/28 21:28:44;;;;;;;18.88;9.75;;;14.00;83.40;;;;;;5049021;28;20040;-77
2021/10/28 21:31:11;;;;;;;20.35;9.93;;;14.10;83.50;;;;;;5049661;28;20021;-77
2021/10/28 21:33:38;;;;;;;20.67;9.90;;;14.00;83.40;;;;;;5048148;28;20108;-78
2021/10/28 21:36:04;;;;;;;21.60;10.77;;;14.10;83.40;;;;;;5055206;28;20033;-77
2021/10/28 21:38:30;;;;;;;20.60;10.70;;;14.00;83.30;;;;;;5052995;28;20059;-78
2021/10/28 21:40:56;;;;;;;20.75;11.02;;;14.10;83.20;;;;;;5053233;28;20047;-78
2021/10/28 21:43:23;;;;;;;18.25;10.35;;;14.10;83.00;;;;;;5048768;28;20379;-77
2021/10/28 21:45:51;;;;;;;17.75;9.95;;;14.00;82.90;;;;;;5051546;28;20562;-78